Terminal Aerodrome Forecast
Issued by NWS Wilmington, OH

Current Version | Previous Version | Text Only | Print | Product List | Glossary Off
Versions: 1 2 3 4 5 6 7 8 9 10 11 12 13 14 15 16 17 18 19 20 21 22 23 24 25 26

000
FTUS41 KILN 191138
TAFCVG
TAF
KCVG 191138Z 1912/2018 14005KT P6SM VCTS OVC090CB
      TEMPO 1912/1916 5SM -TSRA BR OVC050CB
     FM191600 17005KT P6SM VCTS OVC050CB
     FM191800 20005KT P6SM VCSH OVC050
     FM200200 17004KT P6SM BKN110
     FM200700 VRB03KT 5SM BR BKN090
     FM201300 22005KT P6SM BKN028=

USA.gov is the U.S. government's official web portal to all federal, state and local government web resources and services.